createdAt,value
2019-05-03T00:00:14.031Z,88.90
2019-05-03T00:03:12.040Z,88.80
2019-05-03T00:05:54.425Z,88.90
2019-05-03T00:08:23.906Z,89.10
2019-05-03T00:10:54.382Z,89.40
2019-05-03T00:13:25.888Z,89.60
2019-05-03T00:16:12.897Z,89.40
2019-05-03T00:19:05.381Z,89.20
2019-05-03T00:21:37.100Z,88.90
2019-05-03T00:24:06.544Z,89.10
2019-05-03T00:26:36.054Z,89.40
2019-05-03T00:29:05.574Z,89.50
2019-05-03T00:31:35.375Z,90.20
2019-05-03T00:34:12.499Z,89.80
2019-05-03T00:36:52.461Z,89.10
2019-05-03T00:39:36.528Z,89.50
2019-05-03T00:42:06.048Z,89.40
2019-05-03T00:44:46.234Z,89.30
2019-05-03T00:47:19.426Z,89.40
2019-05-03T00:49:51.722Z,89.30
2019-05-03T00:52:22.367Z,89.50
2019-05-03T00:54:52.903Z,89.80
2019-05-03T00:57:22.822Z,89.70
2019-05-03T00:59:52.805Z,90.20
2019-05-03T01:02:22.463Z,90.40
2019-05-03T01:05:07.666Z,90.80
2019-05-03T01:07:36.760Z,90.90
2019-05-03T01:10:12.236Z,91.00
2019-05-03T01:12:41.650Z,91.40
2019-05-03T01:15:21.557Z,91.20
2019-05-03T01:17:52.541Z,91.60
2019-05-03T01:20:22.576Z,91.90
2019-05-03T01:22:52.006Z,91.90
2019-05-03T01:25:31.575Z,91.90
2019-05-03T01:27:52.761Z,91.90
2019-05-03T01:30:22.696Z,91.90
2019-05-03T01:32:52.353Z,91.70
2019-05-03T01:35:24.844Z,91.40
2019-05-03T01:37:54.398Z,91.60
2019-05-03T01:40:24.106Z,91.30
2019-05-03T01:42:59.178Z,91.10
2019-05-03T01:45:29.137Z,90.80
2019-05-03T01:48:08.039Z,91.10
2019-05-03T01:50:49.243Z,91.60
2019-05-03T01:53:21.634Z,91.40
2019-05-03T01:55:52.342Z,90.40
2019-05-03T01:58:23.279Z,90.40
2019-05-03T02:01:03.773Z,90.30
2019-05-03T02:06:19.052Z,88.30
2019-05-03T02:08:48.238Z,87.40
2019-05-03T02:11:24.365Z,86.20
2019-05-03T02:13:54.385Z,86.00
2019-05-03T02:16:23.825Z,84.90
2019-05-03T02:18:53.174Z,84.80
2019-05-03T02:21:22.443Z,85.10
2019-05-03T02:23:53.098Z,85.10
2019-05-03T02:26:24.628Z,85.00
2019-05-03T02:28:53.991Z,85.00
2019-05-03T02:31:24.733Z,84.90
2019-05-03T02:33:54.163Z,83.40
2019-05-03T02:36:26.381Z,82.30
2019-05-03T02:38:57.261Z,83.40
2019-05-03T02:41:26.638Z,83.60
2019-05-03T02:43:59.723Z,83.20
2019-05-03T02:46:46.639Z,83.30
2019-05-03T02:49:25.804Z,83.90
2019-05-03T02:51:55.609Z,83.90
2019-05-03T02:54:26.995Z,84.30
2019-05-03T02:56:57.307Z,84.80
2019-05-03T02:59:26.752Z,84.70
2019-05-03T03:01:56.531Z,84.90
2019-05-03T03:04:27.028Z,85.20
2019-05-03T03:06:58.473Z,84.90
2019-05-03T03:09:28.363Z,84.60
2019-05-03T03:11:59.664Z,84.50
2019-05-03T03:14:30.374Z,84.40
2019-05-03T03:17:03.053Z,84.60
2019-05-03T03:19:35.341Z,84.60
2019-05-03T03:22:07.722Z,85.40
2019-05-03T03:24:41.720Z,85.90
2019-05-03T03:27:16.430Z,86.20
2019-05-03T03:29:52.339Z,86.70
2019-05-03T03:32:29.588Z,86.50
2019-05-03T03:35:20.463Z,87.20
2019-05-03T03:37:46.324Z,87.50
2019-05-03T03:40:18.181Z,88.30
2019-05-03T03:42:50.282Z,88.20
2019-05-03T03:45:20.063Z,88.80
2019-05-03T03:47:56.392Z,89.20
2019-05-03T03:50:26.493Z,89.80
2019-05-03T03:52:58.885Z,89.70
2019-05-03T03:55:31.299Z,89.90
2019-05-03T03:58:01.039Z,89.50
2019-05-03T04:00:31.262Z,89.70
2019-05-03T04:03:00.918Z,89.90
2019-05-03T04:05:30.492Z,90.20
2019-05-03T04:08:00.171Z,90.20
2019-05-03T04:10:30.055Z,90.00
2019-05-03T04:12:59.846Z,90.20
2019-05-03T04:15:46.572Z,90.50
2019-05-03T04:18:40.546Z,90.70
2019-05-03T04:21:09.816Z,91.30
2019-05-03T04:23:40.513Z,91.60
2019-05-03T04:26:09.817Z,91.90
2019-05-03T04:28:40.141Z,92.00
2019-05-03T04:31:09.474Z,92.00
2019-05-03T04:33:45.179Z,91.50
2019-05-03T04:36:16.930Z,91.60
2019-05-03T04:38:49.251Z,91.60
2019-05-03T04:41:27.627Z,91.10
2019-05-03T04:43:59.997Z,91.00
2019-05-03T04:46:43.176Z,91.50
2019-05-03T04:49:15.015Z,92.00
2019-05-03T04:51:46.391Z,92.00
2019-05-03T04:54:25.455Z,92.40
2019-05-03T04:56:56.123Z,92.60
2019-05-03T04:59:26.497Z,92.80
2019-05-03T05:01:56.521Z,92.30
2019-05-03T05:04:26.254Z,92.00
2019-05-03T05:06:59.109Z,91.80
2019-05-03T05:09:30.945Z,90.90
2019-05-03T05:12:00.821Z,91.30
2019-05-03T05:14:31.485Z,91.40
2019-05-03T05:17:01.145Z,90.80
2019-05-03T05:19:39.366Z,90.10
2019-05-03T05:22:10.550Z,89.40
2019-05-03T05:24:41.622Z,89.60
2019-05-03T05:27:18.934Z,89.30
2019-05-03T05:29:48.176Z,89.10
2019-05-03T05:32:17.509Z,88.70
2019-05-03T05:34:48.755Z,88.70
2019-05-03T05:37:19.643Z,88.80
2019-05-03T05:39:48.868Z,88.90
2019-05-03T05:42:22.179Z,88.60
2019-05-03T05:44:52.472Z,88.20
2019-05-03T05:47:37.749Z,88.50
2019-05-03T05:50:35.955Z,87.40
2019-05-03T05:53:05.188Z,87.30
2019-05-03T05:55:52.412Z,86.50
2019-05-03T05:58:46.972Z,85.70
2019-05-03T06:01:32.110Z,85.30
2019-05-03T06:04:01.309Z,85.30
2019-05-03T06:06:37.567Z,84.00
2019-05-03T06:09:25.625Z,84.50
2019-05-03T06:11:59.820Z,84.40
2019-05-03T06:14:36.811Z,84.50
2019-05-03T06:17:40.251Z,83.30
2019-05-03T06:20:25.748Z,83.80
2019-05-03T06:23:05.209Z,83.50
2019-05-03T06:25:37.842Z,84.10
2019-05-03T06:28:18.310Z,84.10
2019-05-03T06:31:02.062Z,84.40
2019-05-03T06:33:31.377Z,84.40
2019-05-03T06:36:00.893Z,82.50
2019-05-03T06:38:30.184Z,82.70
2019-05-03T06:41:00.254Z,81.60
2019-05-03T06:43:29.577Z,81.80
2019-05-03T06:45:59.007Z,82.10
2019-05-03T06:48:32.024Z,81.40
2019-05-03T06:51:00.297Z,81.50
2019-05-03T06:53:30.488Z,80.40
2019-05-03T06:55:59.790Z,80.50
2019-05-03T06:58:33.499Z,78.80
2019-05-03T07:01:27.922Z,78.30
2019-05-03T07:04:17.414Z,78.10
2019-05-03T07:07:20.708Z,78.40
2019-05-03T07:10:00.955Z,79.40
2019-05-03T07:12:47.101Z,80.50
2019-05-03T07:15:19.745Z,81.40
2019-05-03T07:17:49.401Z,81.50
2019-05-03T07:20:18.693Z,82.20
2019-05-03T07:22:48.298Z,80.80
2019-05-03T07:25:17.499Z,80.50
2019-05-03T07:27:46.962Z,79.40
2019-05-03T07:30:16.714Z,78.90
2019-05-03T07:32:48.566Z,78.50
2019-05-03T07:35:17.972Z,80.10
2019-05-03T07:37:47.579Z,82.50
2019-05-03T07:40:16.868Z,86.00
2019-05-03T07:42:46.495Z,86.50
2019-05-03T07:45:15.841Z,89.50
2019-05-03T07:47:45.248Z,91.40
2019-05-03T07:50:15.271Z,93.20
2019-05-03T07:52:45.104Z,93.40
2019-05-03T07:55:15.033Z,93.70
2019-05-03T07:57:55.497Z,92.20
2019-05-03T08:00:29.429Z,92.90
2019-05-03T08:03:01.815Z,93.20
2019-05-03T08:05:31.100Z,91.50
2019-05-03T08:08:00.263Z,89.30
2019-05-03T08:10:29.573Z,86.80
2019-05-03T08:12:58.855Z,83.60
2019-05-03T08:15:28.425Z,86.80
2019-05-03T08:17:58.006Z,84.30
2019-05-03T08:20:27.274Z,82.80
2019-05-03T08:22:56.935Z,82.00
2019-05-03T08:25:26.388Z,80.90
2019-05-03T08:27:55.808Z,81.80
2019-05-03T08:30:33.031Z,79.00
2019-05-03T08:33:09.500Z,79.30
2019-05-03T08:35:41.711Z,77.80
2019-05-03T08:38:11.192Z,76.20
2019-05-03T08:40:57.598Z,77.20
2019-05-03T08:43:59.553Z,77.30
2019-05-03T08:46:47.196Z,73.40
2019-05-03T08:49:22.920Z,74.20
2019-05-03T08:52:00.981Z,74.90
2019-05-03T08:54:45.369Z,75.00
2019-05-03T08:57:15.078Z,75.40
2019-05-03T08:59:45.294Z,73.50
2019-05-03T09:02:21.773Z,75.10
2019-05-03T09:04:58.919Z,75.40
2019-05-03T09:07:31.316Z,75.50
2019-05-03T09:10:16.690Z,72.30
2019-05-03T09:13:03.529Z,72.30
2019-05-03T09:19:05.507Z,69.50
2019-05-03T09:21:42.798Z,67.80
2019-05-03T09:24:35.175Z,70.00
2019-05-03T09:27:10.645Z,68.40
2019-05-03T09:33:09.033Z,67.20
2019-05-03T09:35:45.620Z,63.70
2019-05-03T09:38:45.946Z,61.00
2019-05-03T09:41:17.774Z,62.70
2019-05-03T09:43:47.364Z,62.80
2019-05-03T09:46:16.727Z,62.80
2019-05-03T09:48:47.117Z,66.30
2019-05-03T09:51:19.222Z,66.50
2019-05-03T09:54:02.603Z,66.20
2019-05-03T09:56:57.584Z,66.20
2019-05-03T09:59:20.396Z,65.20
2019-05-03T10:01:49.743Z,66.10
2019-05-03T10:04:31.459Z,63.00
2019-05-03T10:07:00.758Z,63.30
2019-05-03T10:09:30.151Z,62.10
2019-05-03T10:12:09.798Z,62.20
2019-05-03T10:14:45.971Z,63.50
2019-05-03T10:17:38.472Z,61.30
2019-05-03T10:20:10.197Z,61.50
2019-05-03T10:22:43.543Z,62.90
2019-05-03T10:25:15.440Z,60.90
2019-05-03T10:27:50.161Z,57.80
2019-05-03T10:30:28.038Z,59.00
2019-05-03T10:33:05.810Z,59.30
2019-05-03T10:36:32.837Z,58.90
2019-05-03T10:46:10.379Z,56.80
2019-05-03T10:48:51.453Z,57.20
2019-05-03T10:53:09.454Z,58.80
2019-05-03T10:55:35.927Z,60.30
2019-05-03T10:58:46.079Z,60.70
2019-05-03T11:12:44.863Z,57.60
2019-05-03T11:15:25.675Z,54.90
2019-05-03T11:18:34.666Z,54.30
2019-05-03T11:20:55.990Z,53.10
2019-05-03T11:24:41.123Z,52.10
2019-05-03T11:36:16.712Z,54.10
2019-05-03T11:38:50.407Z,52.80
2019-05-03T11:41:30.250Z,53.70
2019-05-03T11:43:57.690Z,51.10
2019-05-03T11:46:27.084Z,50.10
2019-05-03T11:49:14.881Z,50.60
2019-05-03T11:51:48.919Z,52.20
2019-05-03T11:54:19.695Z,51.00
2019-05-03T11:57:12.014Z,48.10
2019-05-03T11:59:48.794Z,47.80
2019-05-03T12:02:29.478Z,47.30
2019-05-03T12:04:59.834Z,48.50
2019-05-03T12:07:39.439Z,47.60
2019-05-03T12:10:20.673Z,47.80
2019-05-03T12:12:59.665Z,45.10
2019-05-03T12:15:36.930Z,42.70
2019-05-03T12:18:16.358Z,38.10
2019-05-03T12:20:47.075Z,40.40
2019-05-03T12:23:17.146Z,44.50
2019-05-03T12:25:47.853Z,47.50
2019-05-03T12:28:21.929Z,44.20
2019-05-03T12:30:53.994Z,44.00
2019-05-03T12:33:26.026Z,45.30
2019-05-03T12:35:55.630Z,45.60
2019-05-03T12:38:25.644Z,49.10
2019-05-03T12:40:57.005Z,44.20
2019-05-03T12:43:29.325Z,41.60
2019-05-03T12:45:58.572Z,41.10
2019-05-03T12:48:27.836Z,36.90
2019-05-03T12:50:58.955Z,36.80
2019-05-03T12:53:30.144Z,39.80
2019-05-03T12:56:00.308Z,42.40
2019-05-03T12:58:56.424Z,43.00
2019-05-03T13:01:41.717Z,45.20
2019-05-03T13:04:16.335Z,47.20
2019-05-03T13:06:50.346Z,47.80
2019-05-03T13:09:19.510Z,42.60
2019-05-03T13:11:56.376Z,44.90
2019-05-03T13:14:25.389Z,45.70
2019-05-03T13:16:55.214Z,46.70
2019-05-03T13:19:25.759Z,46.80
2019-05-03T13:21:55.605Z,46.60
2019-05-03T13:24:26.049Z,41.10
2019-05-03T13:26:55.373Z,42.70
2019-05-03T13:29:25.589Z,43.50
2019-05-03T13:32:01.788Z,41.70
2019-05-03T13:34:28.515Z,42.50
2019-05-03T13:36:57.838Z,42.60
2019-05-03T13:39:27.429Z,39.90
2019-05-03T13:41:57.048Z,38.30
2019-05-03T13:44:26.261Z,39.10
2019-05-03T13:46:55.588Z,35.90
2019-05-03T13:49:26.385Z,34.80
2019-05-03T13:51:56.060Z,34.30
2019-05-03T13:54:25.963Z,36.90
2019-05-03T13:56:55.345Z,36.90
2019-05-03T13:59:24.730Z,36.00
2019-05-03T14:01:54.554Z,35.40
2019-05-03T14:04:29.455Z,37.00
2019-05-03T14:06:58.796Z,38.10
2019-05-03T14:09:28.129Z,39.70
2019-05-03T14:11:57.726Z,40.20
2019-05-03T14:14:26.911Z,36.50
2019-05-03T14:16:56.528Z,38.70
2019-05-03T14:19:34.666Z,41.10
2019-05-03T14:22:05.898Z,42.50
2019-05-03T14:24:35.506Z,46.40
2019-05-03T14:27:05.554Z,46.50
2019-05-03T14:29:34.966Z,46.60
2019-05-03T14:32:05.290Z,44.70
2019-05-03T14:34:35.932Z,44.40
2019-05-03T14:37:05.215Z,43.60
2019-05-03T14:39:34.510Z,42.80
2019-05-03T14:42:04.793Z,42.10
2019-05-03T14:44:35.730Z,41.20
2019-05-03T14:47:07.908Z,40.00
2019-05-03T14:49:37.147Z,40.30
2019-05-03T14:52:06.444Z,37.80
2019-05-03T14:54:39.801Z,36.70
2019-05-03T14:57:16.842Z,36.70
2019-05-03T15:00:16.965Z,37.40
2019-05-03T15:02:57.891Z,38.90
2019-05-03T15:05:26.307Z,40.20
2019-05-03T15:07:57.153Z,43.70
2019-05-03T15:10:27.603Z,45.80
2019-05-03T15:12:56.838Z,46.00
2019-05-03T15:15:28.716Z,43.60
2019-05-03T15:17:57.413Z,41.80
2019-05-03T15:20:27.330Z,41.60
2019-05-03T15:22:56.571Z,42.70
2019-05-03T15:25:26.369Z,41.50
2019-05-03T15:27:56.307Z,43.50
2019-05-03T15:30:25.714Z,42.80
2019-05-03T15:33:00.471Z,42.30
2019-05-03T15:35:26.032Z,42.30
2019-05-03T15:37:55.887Z,41.20
2019-05-03T15:40:25.601Z,41.20
2019-05-03T15:43:07.176Z,41.90
2019-05-03T15:45:51.686Z,45.10
2019-05-03T15:48:24.601Z,47.00
2019-05-03T15:50:55.358Z,46.40
2019-05-03T15:53:25.313Z,45.90
2019-05-03T15:55:55.171Z,46.10
2019-05-03T15:58:25.026Z,44.80
2019-05-03T16:00:55.365Z,43.90
2019-05-03T16:03:25.457Z,44.30
2019-05-03T16:05:55.599Z,44.40
2019-05-03T16:08:25.551Z,45.70
2019-05-03T16:10:55.112Z,46.40
2019-05-03T16:13:25.181Z,45.60
2019-05-03T16:15:55.822Z,45.70
2019-05-03T16:18:25.211Z,46.00
2019-05-03T16:20:56.761Z,47.20
2019-05-03T16:23:28.138Z,47.50
2019-05-03T16:25:59.443Z,48.00
2019-05-03T16:28:50.909Z,46.90
2019-05-03T16:31:21.953Z,48.00
2019-05-03T16:33:51.892Z,48.00
2019-05-03T16:36:21.116Z,48.30
2019-05-03T16:38:50.664Z,49.20
2019-05-03T16:41:19.951Z,49.10
2019-05-03T16:43:49.298Z,48.90
2019-05-03T16:46:18.548Z,50.30
2019-05-03T16:48:47.843Z,49.50
2019-05-03T16:51:17.474Z,50.80
2019-05-03T16:53:47.079Z,49.50
2019-05-03T16:56:17.135Z,48.90
2019-05-03T16:58:46.911Z,49.80
2019-05-03T17:01:18.159Z,50.30
2019-05-03T17:03:54.825Z,49.10
2019-05-03T17:06:41.118Z,48.80
2019-05-03T17:09:38.499Z,49.50
2019-05-03T17:12:25.523Z,49.30
2019-05-03T17:14:57.024Z,50.00
2019-05-03T17:17:27.156Z,51.00
2019-05-03T17:20:01.291Z,51.40
2019-05-03T17:22:30.600Z,51.10
2019-05-03T17:25:00.107Z,52.30
2019-05-03T17:27:30.220Z,51.70
2019-05-03T17:29:59.625Z,50.40
2019-05-03T17:32:29.406Z,51.20
2019-05-03T17:34:58.699Z,51.90
2019-05-03T17:37:27.979Z,51.00
2019-05-03T17:40:19.598Z,52.20
2019-05-03T17:43:05.031Z,52.60
2019-05-03T17:45:38.581Z,53.80
2019-05-03T17:48:07.898Z,54.10
2019-05-03T17:50:37.542Z,54.60
2019-05-03T17:53:29.645Z,54.20
2019-05-03T17:56:15.275Z,56.00
2019-05-03T17:58:56.764Z,55.10
2019-05-03T18:01:55.368Z,56.30
2019-05-03T18:04:50.125Z,56.70
2019-05-03T18:07:34.929Z,56.90
2019-05-03T18:10:07.603Z,56.50
2019-05-03T18:12:36.904Z,56.40
2019-05-03T18:15:06.387Z,57.40
2019-05-03T18:17:35.654Z,57.40
2019-05-03T18:20:07.688Z,57.30
2019-05-03T18:22:37.084Z,57.60
2019-05-03T18:25:06.908Z,58.60
2019-05-03T18:27:36.587Z,58.90
2019-05-03T18:30:06.895Z,58.50
2019-05-03T18:32:36.284Z,58.80
2019-05-03T18:35:06.421Z,58.60
2019-05-03T18:37:36.347Z,58.50
2019-05-03T18:40:06.426Z,58.60
2019-05-03T18:42:41.520Z,58.90
2019-05-03T18:45:16.939Z,60.20
2019-05-03T18:47:46.493Z,60.90
2019-05-03T18:50:19.385Z,59.00
2019-05-03T18:52:48.665Z,59.20
2019-05-03T18:55:18.005Z,60.40
2019-05-03T18:57:47.331Z,60.90
2019-05-03T19:00:18.674Z,60.40
2019-05-03T19:02:48.018Z,60.70
2019-05-03T19:05:20.166Z,60.90
2019-05-03T19:08:06.311Z,60.90
2019-05-03T19:10:44.718Z,61.30
2019-05-03T19:13:18.171Z,61.70
2019-05-03T19:15:47.918Z,62.10
2019-05-03T19:18:35.234Z,62.60
2019-05-03T19:21:04.843Z,62.60
2019-05-03T19:23:35.507Z,63.60
2019-05-03T19:26:05.631Z,63.60
2019-05-03T19:28:35.374Z,63.40
2019-05-03T19:31:05.408Z,63.20
2019-05-03T19:33:37.206Z,63.30
2019-05-03T19:36:05.959Z,63.20
2019-05-03T19:38:35.303Z,63.30
2019-05-03T19:41:04.646Z,63.30
2019-05-03T19:43:35.531Z,65.10
2019-05-03T19:46:07.417Z,65.40
2019-05-03T19:48:36.116Z,65.00
2019-05-03T19:51:06.011Z,65.60
2019-05-03T19:53:55.394Z,64.70
2019-05-03T19:56:25.637Z,64.30
2019-05-03T19:59:04.492Z,64.10
2019-05-03T20:02:01.504Z,64.60
2019-05-03T20:05:00.603Z,65.70
2019-05-03T20:07:38.254Z,66.00
2019-05-03T20:10:10.497Z,65.40
2019-05-03T20:12:39.828Z,65.70
2019-05-03T20:15:09.802Z,65.70
2019-05-03T20:17:39.440Z,65.60
2019-05-03T20:20:09.399Z,65.70
2019-05-03T20:22:38.643Z,66.20
2019-05-03T20:25:08.270Z,65.70
2019-05-03T20:27:37.412Z,66.50
2019-05-03T20:30:07.259Z,66.60
2019-05-03T20:32:36.909Z,67.90
2019-05-03T20:35:16.727Z,66.50
2019-05-03T20:37:37.446Z,67.60
2019-05-03T20:40:09.655Z,67.90
2019-05-03T20:42:57.074Z,66.90
2019-05-03T20:45:37.764Z,66.70
2019-05-03T20:48:07.821Z,68.30
2019-05-03T20:50:37.127Z,67.30
2019-05-03T20:53:06.436Z,68.50
2019-05-03T20:55:35.754Z,67.30
2019-05-03T20:58:07.908Z,68.10
2019-05-03T21:00:36.306Z,69.00
2019-05-03T21:03:05.588Z,68.70
2019-05-03T21:05:37.371Z,69.70
2019-05-03T21:08:06.017Z,69.80
2019-05-03T21:10:35.373Z,69.80
2019-05-03T21:13:05.449Z,69.80
2019-05-03T21:15:45.152Z,70.30
2019-05-03T21:18:36.439Z,70.30
2019-05-03T21:21:25.186Z,70.50
2019-05-03T21:23:58.069Z,71.00
2019-05-03T21:26:27.406Z,70.90
2019-05-03T21:28:56.674Z,71.70
2019-05-03T21:31:26.276Z,71.80
2019-05-03T21:33:55.573Z,71.20
2019-05-03T21:36:25.473Z,71.80
2019-05-03T21:38:55.085Z,72.10
2019-05-03T21:41:24.713Z,72.20
2019-05-03T21:43:54.603Z,72.40
2019-05-03T21:46:39.447Z,72.40
2019-05-03T21:49:29.176Z,72.70
2019-05-03T21:51:58.549Z,72.90
2019-05-03T21:54:27.840Z,72.90
2019-05-03T21:56:58.011Z,73.70
2019-05-03T21:59:27.495Z,73.70
2019-05-03T22:01:57.045Z,74.20
2019-05-03T22:04:26.999Z,74.50
2019-05-03T22:06:58.101Z,74.20
2019-05-03T22:09:27.725Z,74.40
2019-05-03T22:11:57.264Z,74.80
2019-05-03T22:14:32.139Z,74.20
2019-05-03T22:17:25.243Z,74.10
2019-05-03T22:19:58.090Z,75.30
2019-05-03T22:22:52.447Z,74.80
2019-05-03T22:25:25.817Z,75.30
2019-05-03T22:27:55.001Z,75.30
2019-05-03T22:30:26.699Z,75.80
2019-05-03T22:32:55.294Z,75.80
2019-05-03T22:35:25.159Z,76.10
2019-05-03T22:37:57.151Z,76.10
2019-05-03T22:40:26.609Z,76.50
2019-05-03T22:42:55.928Z,76.90
2019-05-03T22:45:25.211Z,77.60
2019-05-03T22:47:54.987Z,77.70
2019-05-03T22:50:25.548Z,76.50
2019-05-03T22:52:55.192Z,76.40
2019-05-03T22:55:24.781Z,78.30
2019-05-03T22:57:54.651Z,78.10
2019-05-03T23:00:25.219Z,77.80
2019-05-03T23:02:54.868Z,78.80
2019-05-03T23:05:24.217Z,78.50
2019-05-03T23:07:55.285Z,78.10
2019-05-03T23:10:25.676Z,78.20
2019-05-03T23:12:55.343Z,78.10
2019-05-03T23:15:24.876Z,78.30
2019-05-03T23:17:54.617Z,78.60
2019-05-03T23:20:35.052Z,78.30
2019-05-03T23:23:05.388Z,77.80
2019-05-03T23:25:35.562Z,77.70
2019-05-03T23:28:05.048Z,78.10
2019-05-03T23:30:34.281Z,78.20
2019-05-03T23:33:03.592Z,78.10
2019-05-03T23:35:34.899Z,79.50
2019-05-03T23:38:04.821Z,79.80
2019-05-03T23:40:34.771Z,80.30
2019-05-03T23:43:05.259Z,80.70
2019-05-03T23:45:34.876Z,80.50
2019-05-03T23:48:04.668Z,80.40
2019-05-03T23:50:35.348Z,80.10
2019-05-03T23:53:04.998Z,80.40
2019-05-03T23:55:44.817Z,80.60
2019-05-03T23:58:14.116Z,80.40
